Time;durP1;ratioP1;P1;durP2;ratioP2;P2;SDS_P1;SDS_P2;PMS_P1;PMS_P2;Temp;Humidity;BMP_temperature;BMP_pressure;BME280_temperature;BME280_humidity;BME280_pressure;Samples;Min_cycle;Max_cycle;Signal;HPM_P1;HPM_P2
2020/12/12 00:02:22;;;;;;;13.27;5.20;;;3.00;99.90;;;3.80;100.00;95850.19;5073884;28;20492;-82
2020/12/12 00:04:50;;;;;;;6.53;4.37;;;3.00;99.90;;;3.78;100.00;95850.41;5076109;28;20504;-82
2020/12/12 00:07:18;;;;;;;5.87;4.20;;;3.00;99.90;;;3.78;100.00;95849.63;5073916;28;20460;-82
2020/12/12 00:09:45;;;;;;;9.50;4.70;;;3.00;99.90;;;3.79;100.00;95846.00;5074532;28;20867;-83
2020/12/12 00:12:14;;;;;;;6.80;4.27;;;3.00;99.90;;;3.78;100.00;95853.00;5073651;28;20463;-82
2020/12/12 00:14:43;;;;;;;7.33;4.20;;;3.10;99.90;;;3.78;100.00;95849.63;5073685;28;20466;-82
2020/12/12 00:17:11;;;;;;;8.73;4.50;;;3.10;99.90;;;3.79;100.00;95857.16;5068254;28;20563;-82
2020/12/12 00:19:39;;;;;;;8.00;3.90;;;3.10;99.90;;;3.81;100.00;95847.44;5070928;28;20906;-82
2020/12/12 00:22:06;;;;;;;8.40;4.47;;;3.10;99.90;;;3.79;100.00;95840.84;5074960;28;20456;-82
2020/12/12 00:24:34;;;;;;;8.10;5.07;;;3.10;99.90;;;3.79;100.00;95846.00;5073251;28;20468;-82
2020/12/12 00:27:01;;;;;;;8.80;4.33;;;3.10;99.90;;;3.79;100.00;95840.84;5070504;28;21018;-82
2020/12/12 00:29:29;;;;;;;7.33;4.80;;;3.00;99.90;;;3.81;100.00;95834.50;5071978;28;20491;-82
2020/12/12 00:31:59;;;;;;;5.60;4.27;;;3.10;99.90;;;3.72;100.00;95838.25;5072482;28;20467;-82
2020/12/12 00:34:28;;;;;;;7.87;3.97;;;3.00;99.90;;;3.67;100.00;95842.44;5073339;28;20547;-82
2020/12/12 00:36:56;;;;;;;7.50;4.57;;;2.90;99.90;;;3.67;100.00;95847.63;5077053;28;21099;-82
2020/12/12 00:39:24;;;;;;;5.77;4.47;;;2.90;99.90;;;3.66;100.00;95848.59;5071831;28;20943;-82
2020/12/12 00:41:52;;;;;;;5.50;4.00;;;2.80;99.90;;;3.67;100.00;95852.78;5076936;28;20841;-82
2020/12/12 00:44:19;;;;;;;8.17;4.73;;;2.90;99.90;;;3.72;100.00;95852.97;5074626;28;20472;-82
2020/12/12 00:46:47;;;;;;;5.70;3.80;;;3.00;99.90;;;3.72;100.00;95850.38;5078004;28;20902;-83
2020/12/12 00:49:16;;;;;;;6.60;3.87;;;2.90;99.90;;;3.71;100.00;95851.41;5078618;28;20502;-82
2020/12/12 00:51:43;;;;;;;6.10;4.07;;;3.00;99.90;;;3.77;100.00;95845.44;5076611;28;20439;-82
2020/12/12 00:54:11;;;;;;;6.57;4.40;;;3.10;99.90;;;3.78;100.00;95847.84;5078955;28;20440;-82
2020/12/12 00:56:38;;;;;;;8.07;4.73;;;3.00;99.90;;;3.81;100.00;95851.78;5077378;28;20468;-82
2020/12/12 00:59:06;;;;;;;8.70;4.93;;;3.10;99.90;;;3.81;100.00;95849.22;5075728;28;20463;-82
2020/12/12 01:01:34;;;;;;;9.20;5.13;;;3.10;99.90;;;3.77;100.00;95848.00;5073910;28;20491;-82
2020/12/12 01:04:02;;;;;;;5.90;4.80;;;3.00;99.90;;;3.79;100.00;95846.81;5078228;28;20443;-82
2020/12/12 01:06:30;;;;;;;6.93;4.77;;;3.10;99.90;;;3.81;100.00;95850.00;5073470;28;20464;-82
2020/12/12 01:08:58;;;;;;;7.43;4.47;;;3.10;99.90;;;3.82;100.00;95855.94;5077740;28;20538;-82
2020/12/12 01:11:25;;;;;;;4.40;3.90;;;3.10;99.90;;;3.82;100.00;95850.78;5075017;28;20464;-82
2020/12/12 01:13:53;;;;;;;6.90;3.97;;;3.10;99.90;;;3.82;100.00;95853.38;5076541;28;20534;-82
2020/12/12 01:16:21;;;;;;;4.57;4.00;;;3.10;99.90;;;3.80;100.00;95863.91;5076837;28;20990;-82
2020/12/12 01:18:48;;;;;;;5.57;4.03;;;3.00;99.90;;;3.76;100.00;95864.50;5075779;28;20817;-82
2020/12/12 01:21:17;;;;;;;4.90;4.07;;;3.00;99.90;;;3.79;100.00;95859.75;5073317;28;20464;-82
2020/12/12 01:23:46;;;;;;;6.87;4.07;;;3.10;99.90;;;3.80;100.00;95863.13;5074339;28;20529;-82
2020/12/12 01:26:14;;;;;;;4.23;3.20;;;3.10;99.90;;;3.84;100.00;95859.16;5075378;28;20487;-82
2020/12/12 01:28:42;;;;;;;5.03;4.00;;;3.10;99.90;;;3.85;100.00;95860.75;5073482;28;20959;-83
2020/12/12 01:31:12;;;;;;;5.60;3.40;;;3.20;99.90;;;3.85;100.00;95861.53;5075483;28;20464;-82
2020/12/12 01:33:40;;;;;;;4.80;4.03;;;3.10;99.90;;;3.83;100.00;95867.88;5075661;28;20459;-82
2020/12/12 01:36:08;;;;;;;5.23;3.83;;;3.10;99.90;;;3.84;100.00;95869.50;5075611;28;20467;-82
2020/12/12 01:38:36;;;;;;;6.07;3.90;;;3.10;99.90;;;3.86;100.00;95867.50;5077837;28;20929;-82
2020/12/12 01:41:05;;;;;;;5.33;3.37;;;3.20;99.90;;;3.86;100.00;95873.47;5074595;28;20529;-82
2020/12/12 01:43:32;;;;;;;4.47;3.60;;;3.20;99.90;;;3.85;100.00;95871.09;5072248;28;20537;-82
2020/12/12 01:46:00;;;;;;;5.73;3.27;;;3.20;99.90;;;3.86;100.00;95875.25;5077227;28;20469;-82
2020/12/12 01:48:28;;;;;;;5.77;4.03;;;3.10;99.90;;;3.84;100.00;95872.06;5075983;28;20474;-83
2020/12/12 01:50:58;;;;;;;6.50;3.87;;;3.10;99.90;;;3.83;100.00;95878.22;5072626;28;20487;-82
2020/12/12 01:53:28;;;;;;;4.20;3.30;;;3.00;99.90;;;3.75;100.00;95876.63;5076425;28;20528;-82
2020/12/12 01:55:55;;;;;;;6.57;4.07;;;3.00;99.90;;;3.65;100.00;95878.81;5072757;28;21028;-83
2020/12/12 01:58:24;;;;;;;3.33;3.00;;;2.90;99.90;;;3.71;100.00;95869.50;5075010;28;20468;-82
2020/12/12 02:00:51;;;;;;;4.90;3.53;;;2.90;99.90;;;3.78;100.00;95875.47;5070200;28;20472;-83
2020/12/12 02:03:25;;;;;;;6.70;4.27;;;3.00;99.90;;;3.80;100.00;95868.28;5076842;28;20540;-82
2020/12/12 02:06:00;;;;;;;5.70;4.07;;;3.10;99.90;;;3.83;100.00;95876.44;5072610;28;20464;-82
2020/12/12 02:08:27;;;;;;;5.07;3.47;;;3.20;99.90;;;3.88;100.00;95873.28;5077454;28;20444;-82
2020/12/12 02:10:55;;;;;;;7.47;3.77;;;3.20;99.90;;;3.88;100.00;95874.06;5070058;28;20503;-82
2020/12/12 02:13:24;;;;;;;7.07;4.43;;;3.20;99.90;;;3.86;100.00;95878.63;5075797;28;20502;-82
2020/12/12 02:15:52;;;;;;;4.93;3.43;;;3.10;99.90;;;3.88;100.00;95870.69;5069262;28;20480;-82
2020/12/12 02:18:23;;;;;;;4.00;3.17;;;3.20;99.90;;;3.90;100.00;95868.69;5073249;28;20975;-82
2020/12/12 02:20:52;;;;;;;7.30;3.63;;;3.30;99.90;;;3.91;100.00;95867.69;5071786;28;20467;-83
2020/12/12 02:23:22;;;;;;;5.07;4.03;;;3.30;99.90;;;3.92;100.00;95875.25;5075540;28;20460;-82
2020/12/12 02:25:51;;;;;;;6.57;3.73;;;3.20;99.90;;;3.93;100.00;95869.09;5073363;28;20986;-82
2020/12/12 02:28:21;;;;;;;6.00;3.60;;;3.30;99.90;;;3.93;100.00;95874.25;5071514;28;20517;-82
2020/12/12 02:30:48;;;;;;;5.63;3.63;;;3.30;99.90;;;3.94;100.00;95869.88;5074023;28;20621;-82
2020/12/12 02:33:16;;;;;;;5.63;3.63;;;3.30;99.90;;;3.95;100.00;95871.47;5073628;28;20993;-82
2020/12/12 02:35:44;;;;;;;5.63;3.70;;;3.30;99.90;;;3.96;100.00;95867.88;5076713;28;20468;-82
2020/12/12 02:38:12;;;;;;;3.17;2.60;;;3.30;99.90;;;3.96;100.00;95865.31;5073780;28;20467;-82
2020/12/12 02:40:40;;;;;;;4.83;3.00;;;3.30;99.90;;;3.96;100.00;95867.88;5073604;28;20821;-82
2020/12/12 02:43:12;;;;;;;4.67;3.50;;;3.40;99.90;;;3.95;100.00;95867.13;5071761;28;20540;-83
2020/12/12 02:45:44;;;;;;;5.57;3.53;;;3.30;99.90;;;3.94;100.00;95860.34;5072390;28;20546;-82
2020/12/12 02:48:12;;;;;;;5.93;3.70;;;3.20;99.90;;;3.93;100.00;95865.69;5075311;28;20953;-82
2020/12/12 02:50:40;;;;;;;2.97;2.73;;;3.20;99.90;;;3.94;100.00;95875.06;5073694;28;20507;-82
2020/12/12 02:53:08;;;;;;;3.53;2.73;;;3.20;99.90;;;3.97;100.00;95864.31;5075298;28;20508;-82
2020/12/12 02:55:35;;;;;;;4.00;2.93;;;3.30;99.90;;;3.97;100.00;95866.91;5069389;28;20489;-82
2020/12/12 02:58:04;;;;;;;3.90;3.13;;;3.30;99.90;;;3.96;100.00;95873.06;5072449;28;20448;-82
2020/12/12 03:00:32;;;;;;;4.00;3.13;;;3.20;99.90;;;3.96;100.00;95871.25;5072053;28;20460;-82
2020/12/12 03:02:59;;;;;;;4.23;2.90;;;3.30;99.90;;;4.00;100.00;95866.50;5075805;28;20483;-82
2020/12/12 03:05:27;;;;;;;6.10;3.37;;;3.40;99.90;;;3.97;100.00;95875.44;5071374;28;20455;-82
2020/12/12 03:07:54;;;;;;;4.33;2.77;;;3.30;99.90;;;3.99;100.00;95872.69;5073059;28;20505;-83
2020/12/12 03:10:22;;;;;;;10.57;2.90;;;3.30;99.90;;;4.00;100.00;95871.66;5073467;28;20503;-82
2020/12/12 03:12:49;;;;;;;4.30;2.73;;;3.20;99.90;;;4.02;100.00;95874.88;5075995;28;20809;-82
2020/12/12 03:15:18;;;;;;;3.33;2.63;;;3.30;99.90;;;4.01;100.00;95875.84;5074551;28;20460;-82
2020/12/12 03:17:45;;;;;;;3.40;2.60;;;3.30;99.90;;;3.99;100.00;95872.69;5075511;28;20480;-82
2020/12/12 03:20:13;;;;;;;3.70;2.60;;;3.30;99.90;;;4.01;100.00;95873.25;5070960;28;20543;-82
2020/12/12 03:22:40;;;;;;;2.30;2.10;;;3.30;99.90;;;3.98;100.00;95876.25;5072334;28;20526;-82
2020/12/12 03:25:08;;;;;;;3.60;2.60;;;3.30;99.90;;;4.01;100.00;95871.47;5075556;28;20509;-82
2020/12/12 03:27:35;;;;;;;2.63;2.20;;;3.30;99.90;;;4.01;100.00;95881.03;5071575;28;20487;-82
2020/12/12 03:30:03;;;;;;;5.30;2.60;;;3.30;99.90;;;4.04;100.00;95878.03;5071304;28;21002;-82
2020/12/12 03:32:33;;;;;;;4.90;2.30;;;3.40;99.90;;;4.02;100.00;95877.44;5073458;28;20470;-82
2020/12/12 03:35:01;;;;;;;3.10;2.67;;;3.40;99.90;;;4.01;100.00;95874.06;5071663;28;20475;-83
2020/12/12 03:37:29;;;;;;;2.80;2.20;;;3.30;99.90;;;4.01;100.00;95881.81;5071011;28;20529;-82
2020/12/12 03:39:57;;;;;;;3.63;2.57;;;3.30;99.90;;;4.04;100.00;95875.44;5073498;28;20468;-83
2020/12/12 03:42:24;;;;;;;4.80;2.40;;;3.40;99.90;;;4.03;100.00;95879.03;5072933;28;20483;-82
2020/12/12 03:44:52;;;;;;;3.00;2.13;;;3.40;99.90;;;4.05;100.00;95877.03;5074829;28;20467;-82
2020/12/12 03:47:19;;;;;;;3.30;2.17;;;3.50;99.90;;;4.01;100.00;95876.66;5070201;28;20459;-82
2020/12/12 03:49:48;;;;;;;2.97;2.30;;;3.40;99.90;;;4.01;100.00;95875.84;5071513;28;20538;-82
2020/12/12 03:52:16;;;;;;;2.30;1.93;;;3.40;99.90;;;4.02;100.00;95882.63;5070079;28;21394;-82
2020/12/12 03:54:44;;;;;;;3.27;2.20;;;3.50;99.90;;;4.02;100.00;95883.41;5074880;28;20537;-82
2020/12/12 03:57:13;;;;;;;2.77;2.33;;;3.50;99.90;;;4.04;100.00;95885.78;5074337;28;20601;-82
2020/12/12 03:59:41;;;;;;;2.60;2.27;;;3.50;99.90;;;4.02;100.00;95880.03;5075092;28;20476;-82
2020/12/12 04:02:09;;;;;;;4.83;2.60;;;3.40;99.90;;;4.01;100.00;95883.59;5072897;28;20557;-82
2020/12/12 04:04:36;;;;;;;2.90;2.27;;;3.40;99.90;;;4.01;100.00;95889.56;5073783;28;20547;-82
2020/12/12 04:07:05;;;;;;;3.70;2.47;;;3.40;99.90;;;4.02;100.00;95887.78;5069008;28;20864;-82
2020/12/12 04:09:32;;;;;;;4.00;2.10;;;3.30;99.90;;;4.04;100.00;95884.00;5074948;28;20491;-82
2020/12/12 04:12:00;;;;;;;2.70;2.20;;;3.30;99.90;;;4.05;100.00;95887.38;5078123;28;20463;-83
2020/12/12 04:14:27;;;;;;;2.90;2.30;;;3.40;99.90;;;4.05;100.00;95888.19;5077361;28;20953;-81
2020/12/12 04:16:55;;;;;;;2.63;1.90;;;3.40;99.90;;;4.10;100.00;95890.16;5076212;28;20460;-81
2020/12/12 04:19:22;;;;;;;2.33;1.93;;;3.40;99.90;;;4.10;100.00;95892.75;5079646;28;20442;-81
2020/12/12 04:21:50;;;;;;;2.70;2.07;;;3.40;99.90;;;4.07;100.00;95893.16;5078264;28;20876;-81
2020/12/12 04:24:18;;;;;;;2.77;1.80;;;3.30;99.90;;;4.04;100.00;95896.13;5076351;28;20456;-81
2020/12/12 04:26:46;;;;;;;3.03;2.30;;;3.30;99.90;;;4.09;100.00;95898.94;5074184;28;20496;-81
2020/12/12 04:29:13;;;;;;;3.83;1.70;;;3.30;99.90;;;4.10;100.00;95904.88;5078271;28;20464;-81
2020/12/12 04:31:40;;;;;;;3.77;2.30;;;3.40;99.90;;;4.11;100.00;95899.50;5078485;28;20795;-81
2020/12/12 04:34:09;;;;;;;2.83;2.30;;;3.50;99.90;;;4.10;100.00;95903.09;5078649;28;20897;-82
2020/12/12 04:36:37;;;;;;;3.63;2.53;;;3.40;99.90;;;4.10;100.00;95905.66;5074448;28;20460;-81
2020/12/12 04:39:04;;;;;;;2.90;2.40;;;3.50;99.90;;;4.11;100.00;95896.94;5077464;28;20965;-81
2020/12/12 04:41:35;;;;;;;4.77;2.60;;;3.50;99.90;;;4.11;100.00;95896.94;5076600;28;20529;-81
2020/12/12 04:44:03;;;;;;;2.20;1.90;;;3.60;99.90;;;4.09;100.00;95898.94;5075143;28;20470;-89
2020/12/12 04:46:31;;;;;;;3.20;1.80;;;3.50;99.90;;;4.08;100.00;95899.91;5075066;28;20592;-81
2020/12/12 04:48:59;;;;;;;3.30;2.37;;;3.40;99.90;;;4.08;100.00;95892.16;5073158;28;20458;-81
2020/12/12 04:51:28;;;;;;;2.40;2.10;;;3.40;99.90;;;4.05;100.00;95905.50;5076894;28;20541;-81
2020/12/12 04:53:57;;;;;;;3.30;2.40;;;3.40;99.90;;;4.05;100.00;95900.31;5074997;28;20464;-82
2020/12/12 04:56:26;;;;;;;3.43;2.20;;;3.40;99.90;;;4.05;100.00;95900.31;5070775;28;20701;-81
2020/12/12 04:58:55;;;;;;;3.33;2.27;;;3.40;99.90;;;4.06;100.00;95901.91;5078637;28;20459;-81
2020/12/12 05:01:23;;;;;;;2.43;1.70;;;3.40;99.90;;;4.07;100.00;95906.06;5078657;28;20494;-81
2020/12/12 05:03:55;;;;;;;3.13;1.80;;;3.40;99.90;;;4.11;100.00;95906.47;5079002;28;20992;-81
2020/12/12 05:06:27;;;;;;;2.33;1.83;;;3.40;99.90;;;4.13;100.00;95907.84;5075759;28;20441;-81
2020/12/12 05:08:55;;;;;;;3.03;2.30;;;3.40;99.90;;;4.13;100.00;95910.44;5076065;28;20451;-81
2020/12/12 05:11:24;;;;;;;3.37;2.33;;;3.50;99.90;;;4.13;100.00;95910.44;5075499;28;20841;-81
2020/12/12 05:13:53;;;;;;;3.20;2.33;;;3.60;99.90;;;4.13;100.00;95914.84;5075205;28;20467;-82
2020/12/12 05:16:21;;;;;;;3.70;2.00;;;3.50;99.90;;;4.12;100.00;95910.66;5076507;28;20463;-81
2020/12/12 05:18:51;;;;;;;3.20;2.00;;;3.50;99.90;;;4.13;100.00;95909.66;5072170;28;20456;-81
2020/12/12 05:21:19;;;;;;;1.80;1.60;;;3.50;99.90;;;4.12;100.00;95914.03;5075729;28;20451;-81
2020/12/12 05:23:47;;;;;;;2.63;1.80;;;3.40;99.90;;;4.10;100.00;95905.66;5079374;28;20443;-82
2020/12/12 05:26:19;;;;;;;2.10;1.83;;;3.40;99.90;;;4.11;100.00;95912.44;5077288;28;20463;-81
2020/12/12 05:28:48;;;;;;;1.60;1.50;;;3.50;99.90;;;4.10;100.00;95910.03;5076813;28;20873;-82
2020/12/12 05:31:18;;;;;;;3.23;2.10;;;3.40;99.90;;;4.10;100.00;95912.63;5073654;28;20496;-81
2020/12/12 05:33:45;;;;;;;3.07;2.30;;;3.40;99.90;;;4.14;100.00;95912.03;5070635;28;20461;-81
2020/12/12 05:36:13;;;;;;;2.10;1.73;;;3.40;99.90;;;4.17;100.00;95916.00;5077004;28;20506;-81
2020/12/12 05:38:41;;;;;;;4.07;2.53;;;3.40;99.90;;;4.20;100.00;95911.22;5076640;28;21445;-81
2020/12/12 05:41:09;;;;;;;2.33;1.93;;;3.50;99.90;;;4.17;100.00;95911.63;5077273;28;20448;-81
2020/12/12 05:43:37;;;;;;;4.73;2.37;;;3.40;99.90;;;4.17;100.00;95909.06;5078017;28;20497;-81
2020/12/12 05:46:05;;;;;;;2.40;2.00;;;3.50;99.90;;;4.18;100.00;95913.25;5075048;28;20898;-80
2020/12/12 05:48:33;;;;;;;1.97;1.80;;;3.50;99.90;;;4.12;100.00;95919.22;5071682;28;20546;-83
2020/12/12 05:51:01;;;;;;;7.30;4.67;;;3.50;99.90;;;4.17;100.00;95928.94;5072991;28;20518;-81
2020/12/12 05:53:30;;;;;;;2.00;1.80;;;3.50;99.90;;;4.19;100.00;95924.38;5075676;28;20864;-81
2020/12/12 05:55:58;;;;;;;11.60;2.40;;;3.50;99.90;;;4.18;100.00;95931.34;5073253;28;20471;-81
2020/12/12 05:58:25;;;;;;;3.27;2.60;;;3.50;99.90;;;4.19;100.00;95932.94;5076314;28;20485;-81
2020/12/12 06:00:53;;;;;;;2.67;2.30;;;3.50;99.90;;;4.21;100.00;95936.09;5077831;28;20463;-81
2020/12/12 06:03:32;;;;;;;2.73;2.10;;;3.50;99.90;;;4.20;100.00;95942.28;5072633;28;20529;-81
2020/12/12 06:06:06;;;;;;;2.83;2.03;;;3.50;99.90;;;4.22;100.00;95949.84;5074258;28;20457;-81
2020/12/12 06:08:36;;;;;;;2.93;2.30;;;3.50;99.90;;;4.17;100.00;95950.44;5074494;28;20462;-81
2020/12/12 06:11:07;;;;;;;3.37;2.30;;;3.50;99.90;;;4.19;100.00;95945.88;5075717;28;20484;-81
2020/12/12 06:13:37;;;;;;;4.60;2.27;;;3.50;99.90;;;4.21;100.00;95948.25;5074292;28;20491;-81
2020/12/12 06:16:07;;;;;;;6.30;2.43;;;3.50;99.90;;;4.17;100.00;95950.44;5074109;28;20486;-81
2020/12/12 06:18:51;;;;;;;3.73;2.13;;;3.50;99.90;;;4.15;100.00;95960.19;5074611;28;20459;-81
2020/12/12 06:21:22;;;;;;;4.37;2.67;;;3.40;99.90;;;4.17;100.00;95962.56;5075041;28;20463;-81
2020/12/12 06:23:50;;;;;;;2.10;1.90;;;3.40;99.90;;;4.20;100.00;95968.13;5072851;28;20453;-81
2020/12/12 06:26:29;;;;;;;3.70;2.70;;;3.40;99.90;;;4.20;100.00;95962.19;5068624;28;20491;-81
2020/12/12 06:29:00;;;;;;;4.77;2.70;;;3.40;99.90;;;4.22;100.00;95971.34;5070502;28;20967;-81
2020/12/12 06:31:29;;;;;;;3.30;2.20;;;3.50;99.90;;;4.22;100.00;95966.16;5075163;28;20491;-81
2020/12/12 06:33:56;;;;;;;3.67;2.87;;;3.50;99.90;;;4.18;100.00;95974.50;5075874;28;20451;-80
2020/12/12 06:36:29;;;;;;;7.53;3.43;;;3.50;99.90;;;4.18;100.00;95977.91;5069954;28;21147;-81
2020/12/12 06:39:25;;;;;;;6.10;3.13;;;3.50;99.90;;;4.19;100.00;95971.72;5073782;28;20463;-81
2020/12/12 06:41:56;;;;;;;3.57;2.10;;;3.50;99.90;;;4.22;100.00;95981.69;5070964;28;20494;-80
2020/12/12 06:44:38;;;;;;;2.60;2.20;;;3.60;99.90;;;4.21;100.00;95987.84;5070781;28;20521;-81
2020/12/12 06:47:07;;;;;;;5.53;2.77;;;3.50;99.90;;;4.21;100.00;95990.41;5075912;28;20470;-81
2020/12/12 06:49:36;;;;;;;3.43;2.77;;;3.50;99.90;;;4.20;100.00;95994.00;5073966;28;20462;-81
2020/12/12 06:52:05;;;;;;;3.83;2.50;;;3.40;99.90;;;4.20;100.00;95994.00;5074311;28;20469;-80
2020/12/12 06:54:34;;;;;;;4.13;2.57;;;3.40;99.90;;;4.22;100.00;95992.03;5073336;28;20467;-81
2020/12/12 06:57:02;;;;;;;4.50;2.70;;;3.50;99.90;;;4.23;100.00;96003.16;5070583;28;20732;-81
2020/12/12 06:59:35;;;;;;;3.40;2.77;;;3.50;99.90;;;4.24;100.00;96000.38;5075154;28;20971;-81
2020/12/12 07:02:05;;;;;;;4.40;2.97;;;3.50;99.90;;;4.26;100.00;96007.94;5074625;28;20480;-81
2020/12/12 07:04:35;;;;;;;3.20;2.63;;;3.50;99.90;;;4.25;100.00;96004.56;5074164;28;20991;-81
2020/12/12 07:07:07;;;;;;;3.17;2.27;;;3.60;99.90;;;4.23;100.00;96009.16;5074332;28;20475;-81
2020/12/12 07:09:36;;;;;;;3.23;2.57;;;3.50;99.90;;;4.23;100.00;96011.72;5075149;28;20475;-81
2020/12/12 07:12:04;;;;;;;8.40;2.70;;;3.50;99.90;;;4.25;100.00;96016.69;5076280;28;20451;-82
2020/12/12 07:14:33;;;;;;;5.80;3.17;;;3.50;99.90;;;4.25;100.00;96019.28;5074529;28;20949;-80
2020/12/12 07:17:02;;;;;;;4.60;2.83;;;3.50;99.90;;;4.27;100.00;96019.91;5072563;28;20482;-81
2020/12/12 07:19:36;;;;;;;4.27;2.90;;;3.60;99.90;;;4.28;100.00;96022.25;5076537;28;20531;-81
2020/12/12 07:22:07;;;;;;;5.30;2.70;;;3.60;99.90;;;4.28;100.00;96032.59;5071759;28;20834;-81
2020/12/12 07:24:35;;;;;;;6.50;3.40;;;3.50;99.90;;;4.28;100.00;96035.19;5076124;28;20524;-81
2020/12/12 07:27:04;;;;;;;2.73;2.30;;;3.50;99.90;;;4.29;100.00;96044.56;5070892;28;20491;-81
2020/12/12 07:29:33;;;;;;;8.23;3.07;;;3.60;99.90;;;4.30;100.00;96047.94;5076003;28;20928;-81
2020/12/12 07:32:01;;;;;;;3.27;2.90;;;3.70;99.90;;;4.28;100.00;96050.72;5074034;28;20813;-81
2020/12/12 07:34:29;;;;;;;5.80;2.50;;;3.60;99.90;;;4.27;100.00;96051.69;5078602;28;20478;-81
2020/12/12 07:36:59;;;;;;;3.10;2.43;;;3.60;99.90;;;4.27;100.00;96056.88;5079246;28;20444;-81
2020/12/12 07:39:33;;;;;;;5.77;2.90;;;3.60;99.90;;;4.28;100.00;96058.47;5077417;28;20447;-81
2020/12/12 07:42:04;;;;;;;3.97;2.57;;;3.60;99.90;;;4.30;100.00;96066.84;5075304;28;20872;-81
2020/12/12 07:44:33;;;;;;;4.83;2.70;;;3.60;99.90;;;4.31;100.00;96076.19;5078603;28;20443;-81
2020/12/12 07:47:04;;;;;;;7.00;3.13;;;3.70;99.90;;;4.32;100.00;96084.75;5082905;28;20448;-80
2020/12/12 07:49:37;;;;;;;4.70;3.10;;;3.60;99.90;;;4.32;100.00;96085.56;5078496;28;21477;-81
2020/12/12 07:52:08;;;;;;;7.83;2.83;;;3.60;99.90;;;4.32;100.00;96084.75;5082331;28;20486;-81
2020/12/12 07:54:42;;;;;;;8.60;2.67;;;3.60;99.90;;;4.31;100.00;96089.13;5083236;28;20447;-81
2020/12/12 07:57:12;;;;;;;4.60;3.00;;;3.70;99.90;;;4.31;100.00;96089.13;5083748;28;21311;-80
2020/12/12 07:59:40;;;;;;;5.80;2.77;;;3.60;99.90;;;4.32;100.00;96084.75;5082593;28;20448;-81
2020/12/12 08:02:10;;;;;;;5.57;3.10;;;3.60;99.90;;;4.32;100.00;96095.91;5081604;28;20848;-81
2020/12/12 08:04:38;;;;;;;4.23;2.63;;;3.60;99.90;;;4.33;100.00;96097.50;5082961;28;20447;-81
2020/12/12 08:07:18;;;;;;;7.07;3.50;;;3.60;99.90;;;4.35;100.00;96103.25;5081298;28;20439;-81
2020/12/12 08:09:49;;;;;;;8.00;3.27;;;3.60;99.90;;;4.40;100.00;96108.66;5081714;28;20474;-81
2020/12/12 08:12:30;;;;;;;7.73;2.90;;;3.60;99.90;;;4.40;100.00;96110.44;5079323;28;20452;-81
2020/12/12 08:15:09;;;;;;;7.27;3.67;;;3.60;99.90;;;4.42;100.00;96117.00;5082491;28;20474;-81
2020/12/12 08:17:36;;;;;;;7.50;3.10;;;3.70;99.90;;;4.43;100.00;96120.41;5082834;28;20490;-81
2020/12/12 08:20:04;;;;;;;7.43;2.80;;;3.70;99.90;;;4.42;100.00;96121.38;5081339;28;20441;-82
2020/12/12 08:22:38;;;;;;;6.83;3.27;;;3.60;99.90;;;4.43;100.00;96117.81;5082042;28;20448;-80
2020/12/12 08:25:08;;;;;;;7.27;3.10;;;3.70;99.90;;;4.41;100.00;96125.75;5078548;28;20443;-81
2020/12/12 08:27:37;;;;;;;7.20;3.20;;;3.70;99.90;;;4.43;100.00;96128.97;5082691;28;20480;-81
2020/12/12 08:30:08;;;;;;;5.03;2.97;;;3.70;99.90;;;4.45;100.00;96126.16;5083078;28;20927;-81
2020/12/12 08:32:38;;;;;;;6.50;3.40;;;3.80;99.90;;;4.47;100.00;96137.94;5082848;28;20449;-80
2020/12/12 08:35:17;;;;;;;9.37;3.30;;;3.80;99.90;;;4.52;100.00;96135.53;5081370;28;20575;-80
2020/12/12 08:37:55;;;;;;;9.20;3.10;;;3.90;99.90;;;4.52;100.00;96140.72;5081530;28;20943;-80
2020/12/12 08:40:27;;;;;;;5.90;3.23;;;3.90;99.90;;;4.53;100.00;96139.72;5081331;28;20912;-80
2020/12/12 08:43:06;;;;;;;7.93;3.33;;;3.90;99.90;;;4.55;100.00;96147.28;5082295;28;20470;-80
2020/12/12 08:45:37;;;;;;;8.13;3.03;;;3.90;99.90;;;4.60;100.00;96147.50;5081492;28;20448;-81
2020/12/12 08:48:08;;;;;;;6.87;3.80;;;3.90;99.90;;;4.63;100.00;96151.47;5081871;28;20820;-80
2020/12/12 08:50:48;;;;;;;7.67;4.20;;;4.00;99.90;;;4.64;100.00;96158.25;5080276;28;20495;-80
2020/12/12 08:53:31;;;;;;;6.30;3.47;;;4.00;99.90;;;4.67;100.00;96160.47;5080877;28;20439;-80
2020/12/12 08:56:09;;;;;;;6.90;3.13;;;4.00;99.90;;;4.66;100.00;96162.25;5080446;28;20500;-80
2020/12/12 08:58:47;;;;;;;7.00;3.50;;;4.00;99.90;;;4.70;100.00;96160.06;5081148;28;20439;-80
2020/12/12 09:01:34;;;;;;;5.97;4.13;;;4.10;99.90;;;4.71;100.00;96169.44;5081896;28;20460;-80
2020/12/12 09:04:20;;;;;;;10.77;4.77;;;4.10;99.90;;;4.77;100.00;96172.03;5080304;28;20443;-80
2020/12/12 09:06:57;;;;;;;7.43;4.17;;;4.20;99.90;;;4.78;100.00;96170.22;5081867;28;20528;-80
2020/12/12 09:09:26;;;;;;;10.53;4.10;;;4.20;99.90;;;4.80;100.00;96181.97;5081512;28;20435;-80
2020/12/12 09:11:59;;;;;;;12.87;5.33;;;4.20;99.90;;;4.83;100.00;96191.13;5081172;28;21034;-80
2020/12/12 09:14:29;;;;;;;8.60;4.27;;;4.20;99.90;;;4.79;100.00;96189.97;5079961;28;20883;-80
2020/12/12 09:17:00;;;;;;;10.13;4.37;;;4.20;99.90;;;4.82;100.00;96189.56;5079854;28;20452;-79
2020/12/12 09:19:29;;;;;;;12.73;5.00;;;4.20;99.90;;;4.79;100.00;96190.72;5080469;28;20799;-80
2020/12/12 09:21:58;;;;;;;11.00;5.30;;;4.10;99.90;;;4.84;100.00;96208.28;5080397;28;20448;-80
2020/12/12 09:24:27;;;;;;;8.70;4.37;;;4.20;99.90;;;4.84;100.00;96206.50;5080461;28;20441;-81
2020/12/12 09:26:58;;;;;;;11.03;5.03;;;4.20;99.90;;;4.85;100.00;96208.09;5075668;28;21087;-80
2020/12/12 09:29:27;;;;;;;12.93;4.60;;;4.20;99.90;;;4.90;100.00;96208.28;5080774;28;21034;-81
2020/12/12 09:31:56;;;;;;;16.17;5.20;;;4.20;99.90;;;4.94;100.00;96219.03;5080791;28;20537;-80
2020/12/12 09:34:25;;;;;;;6.97;4.17;;;4.30;99.90;;;4.95;100.00;96213.69;5080329;28;20527;-80
2020/12/12 09:36:54;;;;;;;13.33;5.47;;;4.30;99.90;;;4.97;100.00;96216.06;5080616;28;20443;-80
2020/12/12 09:39:22;;;;;;;12.50;5.37;;;4.30;99.90;;;4.96;100.00;96217.84;5081140;28;20431;-80
2020/12/12 09:41:57;;;;;;;16.30;5.83;;;4.30;99.90;;;5.01;100.00;96225.84;5080444;28;20472;-81
2020/12/12 09:44:25;;;;;;;13.50;4.50;;;4.40;99.90;;;5.05;100.00;96228.84;5080094;28;20534;-80
2020/12/12 09:46:54;;;;;;;12.67;5.00;;;4.40;99.90;;;5.06;100.00;96225.25;5079414;28;20439;-80
2020/12/12 09:49:22;;;;;;;10.50;4.57;;;4.40;99.90;;;5.06;100.00;96233.81;5075696;28;20462;-79
2020/12/12 09:51:50;;;;;;;12.87;5.33;;;4.30;99.90;;;5.08;100.00;96241.38;5078472;28;20837;-81
2020/12/12 09:54:17;;;;;;;12.07;5.27;;;4.40;99.90;;;5.11;100.00;96248.75;5075364;28;20967;-80
2020/12/12 09:56:48;;;;;;;11.73;4.70;;;4.40;99.90;;;5.16;100.00;96251.56;5077851;28;20458;-80
2020/12/12 09:59:17;;;;;;;9.67;4.57;;;4.50;99.90;;;5.19;100.00;96258.13;5078718;28;20811;-80
2020/12/12 10:01:45;;;;;;;10.67;5.13;;;4.60;99.90;;;5.18;100.00;96252.16;5078123;28;20460;-81
2020/12/12 10:04:13;;;;;;;8.10;4.07;;;4.60;99.90;;;5.15;100.00;96257.72;5075750;28;20479;-81
2020/12/12 10:06:43;;;;;;;13.30;5.17;;;4.50;99.90;;;5.14;100.00;96256.13;5078950;28;20441;-81
2020/12/12 10:09:12;;;;;;;17.10;5.40;;;4.40;99.90;;;5.16;100.00;96261.94;5077578;28;20454;-81
2020/12/12 10:11:40;;;;;;;12.30;4.47;;;4.50;99.90;;;5.16;100.00;96267.13;5080235;28;20826;-81
2020/12/12 10:14:07;;;;;;;11.73;5.10;;;4.50;99.90;;;5.17;100.00;96266.13;5077615;28;20451;-81
2020/12/12 10:16:36;;;;;;;11.50;4.60;;;4.50;99.90;;;5.19;100.00;96269.31;5079909;28;20443;-81
2020/12/12 10:19:05;;;;;;;15.23;4.77;;;4.50;99.90;;;5.19;100.00;96269.31;5076695;28;20833;-81
2020/12/12 10:21:32;;;;;;;11.23;4.67;;;4.50;99.90;;;5.20;100.00;96275.28;5080650;28;20456;-81
2020/12/12 10:24:00;;;;;;;8.00;3.70;;;4.50;99.90;;;5.23;100.00;96280.06;5080455;28;20443;-81
2020/12/12 10:26:28;;;;;;;9.13;4.33;;;4.70;99.90;;;5.25;100.00;96276.28;5079274;28;20468;-81
2020/12/12 10:28:55;;;;;;;8.57;4.70;;;4.60;99.90;;;5.28;100.00;96280.25;5079699;28;20452;-81
2020/12/12 10:31:23;;;;;;;8.40;3.50;;;4.70;99.90;;;5.31;100.00;96278.06;5078742;28;21040;-81
2020/12/12 10:33:52;;;;;;;10.40;5.00;;;4.70;99.90;;;5.36;100.00;96283.47;5080677;28;20444;-81
2020/12/12 10:36:28;;;;;;;11.20;4.40;;;4.70;99.90;;;5.37;100.00;96287.69;5078628;28;20466;-81